Time;durP1;ratioP1;P1;durP2;ratioP2;P2;SDS_P1;SDS_P2;PMS_P1;PMS_P2;Temp;Humidity;BMP_temperature;BMP_pressure;BME280_temperature;BME280_humidity;BME280_pressure;Samples;Min_cycle;Max_cycle;Signal;HPM_P1;HPM_P2
2022/11/05 00:10:56;;;;;;;10.07;5.70;;;23.10;58.60;;;;;;5021440;28;20505;-63
2022/11/05 00:19:12;;;;;;;8.85;5.80;;;23.10;58.50;;;;;;5027519;28;20161;-62
2022/11/05 00:27:08;;;;;;;7.38;5.00;;;23.10;58.40;;;;;;5013068;28;20044;-63
2022/11/05 00:29:33;;;;;;;8.23;4.90;;;23.10;58.30;;;;;;5021516;28;20037;-63
2022/11/05 00:31:59;;;;;;;9.32;5.40;;;23.10;58.30;;;;;;5023277;28;20401;-63
2022/11/05 00:34:25;;;;;;;7.47;5.03;;;23.10;58.30;;;;;;5023023;28;20025;-64
2022/11/05 00:36:51;;;;;;;8.02;4.97;;;23.10;58.30;;;;;;5005048;28;20128;-64
2022/11/05 00:39:16;;;;;;;9.57;5.47;;;23.20;58.30;;;;;;5009556;28;20022;-63
2022/11/05 00:41:42;;;;;;;7.90;5.35;;;23.20;58.30;;;;;;5010939;28;20022;-63
2022/11/05 00:49:28;;;;;;;7.22;4.72;;;23.20;58.70;;;;;;5013517;28;20037;-63
2022/11/05 00:49:37;;;;;;;7.38;4.25;;;23.20;58.30;;;;;;5003549;28;20351;-64
2022/11/05 00:54:47;;;;;;;7.65;4.95;;;23.10;58.30;;;;;;5015656;28;20029;-61
2022/11/05 00:57:12;;;;;;;8.25;4.75;;;23.10;58.30;;;;;;5027166;28;20384;-63
2022/11/05 00:59:38;;;;;;;7.30;4.70;;;23.00;58.30;;;;;;5018040;28;20085;-64
2022/11/05 01:02:03;;;;;;;6.47;4.18;;;23.00;58.30;;;;;;5012397;28;20090;-62
2022/11/05 01:04:29;;;;;;;7.00;4.50;;;23.00;58.40;;;;;;5015099;28;20034;-62
2022/11/05 01:06:54;;;;;;;6.65;4.38;;;23.10;58.50;;;;;;5017560;28;20033;-62
2022/11/05 01:09:20;;;;;;;7.75;4.60;;;23.00;58.40;;;;;;5017120;28;20057;-61
2022/11/05 01:11:46;;;;;;;8.05;4.82;;;23.00;58.50;;;;;;5009835;28;20026;-62
2022/11/05 01:14:17;;;;;;;8.32;4.53;;;23.00;58.50;;;;;;5009538;28;20085;-62
2022/11/05 01:16:44;;;;;;;6.95;4.53;;;22.90;58.50;;;;;;5012332;28;20032;-61
2022/11/05 01:19:10;;;;;;;7.85;4.22;;;22.90;58.50;;;;;;5015181;28;20084;-62
2022/11/05 01:21:36;;;;;;;7.30;4.05;;;22.90;58.50;;;;;;5014442;28;20044;-63
2022/11/05 01:24:02;;;;;;;6.63;3.95;;;22.90;58.60;;;;;;5007319;28;20029;-63
2022/11/05 01:26:28;;;;;;;6.10;4.00;;;22.90;58.60;;;;;;5007360;28;20045;-62
2022/11/05 01:28:55;;;;;;;5.82;3.75;;;22.90;58.60;;;;;;5009397;28;20117;-62
2022/11/05 01:31:22;;;;;;;5.47;3.47;;;22.80;58.60;;;;;;5011279;28;20433;-64
2022/11/05 01:33:48;;;;;;;5.57;4.05;;;22.70;58.60;;;;;;5013577;28;20497;-62
2022/11/05 01:36:14;;;;;;;5.93;3.72;;;22.80;58.70;;;;;;5009041;28;20534;-63
2022/11/05 01:38:40;;;;;;;6.57;3.90;;;22.70;58.70;;;;;;5009615;28;20022;-61
2022/11/05 01:41:06;;;;;;;5.75;3.70;;;22.70;58.70;;;;;;5009669;28;20038;-62
2022/11/05 01:43:55;;;;;;;5.28;3.55;;;22.70;58.80;;;;;;5010075;28;20176;-63
2022/11/05 01:46:42;;;;;;;5.15;3.40;;;22.70;58.80;;;;;;5014120;28;20029;-62
2022/11/05 01:49:32;;;;;;;5.90;3.65;;;22.70;58.80;;;;;;5013785;28;20619;-62
2022/11/05 01:52:01;;;;;;;7.03;3.90;;;22.70;58.80;;;;;;5017752;28;20036;-62
2022/11/05 01:54:30;;;;;;;5.38;3.40;;;22.60;58.80;;;;;;5018926;28;20076;-63
2022/11/05 01:57:05;;;;;;;5.50;3.67;;;22.60;58.90;;;;;;5022939;28;20030;-62
2022/11/05 01:59:38;;;;;;;6.80;3.72;;;22.60;58.90;;;;;;5011784;28;20036;-62
2022/11/05 02:02:06;;;;;;;6.00;3.80;;;22.60;59.00;;;;;;5011579;28;20045;-63
2022/11/05 02:04:53;;;;;;;5.47;3.50;;;22.60;59.00;;;;;;5013895;28;20030;-62
2022/11/05 02:07:20;;;;;;;5.65;3.28;;;22.50;58.90;;;;;;5018086;28;20068;-63
2022/11/05 02:10:04;;;;;;;5.43;3.40;;;22.50;59.00;;;;;;5009985;28;20326;-63
2022/11/05 02:12:32;;;;;;;5.25;3.25;;;22.50;59.00;;;;;;5013285;28;20164;-64
2022/11/05 02:14:57;;;;;;;5.05;3.25;;;22.50;59.50;;;;;;5012855;28;20026;-64
2022/11/05 02:17:34;;;;;;;4.78;3.15;;;22.50;59.10;;;;;;5015182;28;20037;-63
2022/11/05 02:20:22;;;;;;;4.65;3.08;;;22.50;59.10;;;;;;5015183;28;20030;-63
2022/11/05 02:23:00;;;;;;;4.63;3.20;;;22.40;59.00;;;;;;5000935;28;20386;-63
2022/11/05 02:26:04;;;;;;;4.47;3.08;;;22.40;59.10;;;;;;5004863;28;20035;-65
2022/11/05 02:28:41;;;;;;;5.20;3.20;;;22.40;59.10;;;;;;4967877;28;20165;-64
2022/11/05 02:31:19;;;;;;;4.95;2.80;;;22.40;59.10;;;;;;5006798;28;20169;-65
2022/11/05 02:34:18;;;;;;;4.53;3.42;;;22.40;59.10;;;;;;5001288;28;20038;-64
2022/11/05 02:36:53;;;;;;;5.50;3.40;;;22.40;59.10;;;;;;4997851;28;20057;-63
2022/11/05 02:39:33;;;;;;;5.05;3.08;;;22.40;59.10;;;;;;5023186;28;20037;-65
2022/11/05 02:42:34;;;;;;;5.03;3.58;;;22.30;59.10;;;;;;5026597;28;20137;-64
2022/11/05 02:45:15;;;;;;;4.75;2.80;;;22.30;59.20;;;;;;5014882;28;20501;-64
2022/11/05 02:47:46;;;;;;;5.70;2.88;;;22.30;59.20;;;;;;5011192;28;20057;-64
2022/11/05 02:50:34;;;;;;;5.03;3.28;;;22.30;59.20;;;;;;5021392;28;20030;-63
2022/11/05 02:53:03;;;;;;;4.40;2.90;;;22.20;59.20;;;;;;5023659;28;20021;-63
2022/11/05 02:55:45;;;;;;;5.23;3.13;;;22.30;59.30;;;;;;5020399;28;20022;-64
2022/11/05 02:58:11;;;;;;;4.57;2.60;;;22.20;59.20;;;;;;5012369;28;20489;-65
2022/11/05 03:00:39;;;;;;;4.50;3.10;;;22.20;59.20;;;;;;5013386;28;20030;-64
2022/11/05 03:03:13;;;;;;;4.05;2.75;;;22.20;59.20;;;;;;5014141;28;20485;-64
2022/11/05 03:06:26;;;;;;;6.43;3.22;;;22.20;59.20;;;;;;5013569;28;20034;-63
2022/11/05 03:09:20;;;;;;;4.00;2.63;;;22.20;59.30;;;;;;5009951;28;20026;-64
2022/11/05 03:12:13;;;;;;;4.03;2.67;;;22.10;59.30;;;;;;5006237;28;20033;-63
2022/11/05 03:14:51;;;;;;;4.57;2.90;;;22.20;59.30;;;;;;5012990;28;20397;-63
2022/11/05 03:17:36;;;;;;;4.35;2.60;;;22.10;59.30;;;;;;5015074;28;20113;-63
2022/11/05 03:20:18;;;;;;;3.92;2.78;;;22.20;59.40;;;;;;5009900;28;20032;-63
2022/11/05 03:22:53;;;;;;;3.83;2.70;;;22.10;59.30;;;;;;5008286;28;20116;-64
2022/11/05 03:25:22;;;;;;;4.55;2.80;;;22.10;59.40;;;;;;5018483;28;20104;-63
2022/11/05 03:27:54;;;;;;;4.38;2.50;;;22.10;59.40;;;;;;5021333;28;20361;-64
2022/11/05 03:30:20;;;;;;;4.90;2.90;;;22.10;59.40;;;;;;5024595;28;20029;-64
2022/11/05 03:32:51;;;;;;;3.85;2.55;;;22.00;59.40;;;;;;5018173;28;20504;-64
2022/11/05 03:35:23;;;;;;;4.32;2.75;;;22.10;59.50;;;;;;5017340;28;20041;-63
2022/11/05 03:37:53;;;;;;;4.15;2.30;;;22.10;59.40;;;;;;5016160;28;20940;-63
2022/11/05 03:40:21;;;;;;;3.88;2.35;;;22.00;59.40;;;;;;5019865;28;20033;-63
2022/11/05 03:42:50;;;;;;;3.75;2.38;;;22.00;59.40;;;;;;5013011;28;20116;-63
2022/11/05 03:45:31;;;;;;;4.53;2.70;;;22.00;59.40;;;;;;5011091;28;20034;-63
2022/11/05 03:48:00;;;;;;;3.97;2.65;;;22.00;59.40;;;;;;5011274;28;20048;-64
2022/11/05 03:50:48;;;;;;;4.78;2.72;;;22.00;59.50;;;;;;5014289;28;20533;-64
2022/11/05 03:53:17;;;;;;;4.00;2.70;;;22.00;59.40;;;;;;5017891;28;20025;-62
2022/11/05 03:55:59;;;;;;;4.40;2.40;;;22.00;59.50;;;;;;5012871;28;20021;-64
2022/11/05 03:58:25;;;;;;;3.70;2.40;;;22.00;60.00;;;;;;5013560;28;20686;-64
2022/11/05 04:00:51;;;;;;;4.40;2.53;;;22.00;59.50;;;;;;5012593;28;20121;-64
2022/11/05 04:03:17;;;;;;;3.58;2.03;;;21.90;60.00;;;;;;5014002;28;20112;-64
2022/11/05 04:13:22;;;;;;;3.80;2.40;;;21.90;59.50;;;;;;5016121;28;20084;-64
2022/11/05 04:13:57;;;;;;;4.05;2.45;;;21.90;59.60;;;;;;5020699;28;20084;-63
2022/11/05 04:19:06;;;;;;;3.97;2.50;;;21.90;59.60;;;;;;5006068;28;20032;-63
2022/11/05 04:24:16;;;;;;;3.42;2.25;;;21.90;59.60;;;;;;5017552;28;20087;-63
2022/11/05 04:26:42;;;;;;;3.15;2.22;;;21.90;59.60;;;;;;5018862;28;20076;-63
2022/11/05 04:31:53;;;;;;;3.17;2.03;;;21.90;59.60;;;;;;5011496;28;20037;-64
2022/11/05 04:34:20;;;;;;;3.67;2.33;;;21.80;59.60;;;;;;5017000;28;20030;-63
2022/11/05 04:36:48;;;;;;;3.20;2.20;;;21.90;59.70;;;;;;5018029;28;20036;-64
2022/11/05 04:39:17;;;;;;;3.38;2.22;;;21.80;59.70;;;;;;5017447;28;20076;-65
2022/11/05 04:41:46;;;;;;;3.67;2.20;;;21.80;59.70;;;;;;5012390;28;20026;-63
2022/11/05 04:44:13;;;;;;;3.22;2.00;;;21.80;59.70;;;;;;5014128;28;20023;-65
2022/11/05 04:46:38;;;;;;;3.28;2.10;;;21.80;59.70;;;;;;5019496;28;20472;-63
2022/11/05 04:49:04;;;;;;;3.20;2.00;;;21.80;59.70;;;;;;5012668;28;20109;-63
2022/11/05 04:51:29;;;;;;;3.63;2.30;;;21.70;59.60;;;;;;5007830;28;20026;-64
2022/11/05 04:53:55;;;;;;;2.97;2.10;;;21.70;59.70;;;;;;5005570;28;20026;-64
2022/11/05 04:56:23;;;;;;;3.17;2.03;;;21.70;59.60;;;;;;4999956;28;20018;-64
2022/11/05 04:58:49;;;;;;;3.83;2.40;;;21.70;59.70;;;;;;5011664;28;20080;-63
2022/11/05 05:01:20;;;;;;;3.30;2.03;;;21.80;59.70;;;;;;5009961;28;20533;-65
2022/11/05 05:03:47;;;;;;;3.58;2.15;;;21.70;59.70;;;;;;5024489;28;20401;-64
2022/11/05 05:06:14;;;;;;;3.20;2.05;;;21.70;59.70;;;;;;5011073;28;20433;-64
2022/11/05 05:08:39;;;;;;;3.42;1.80;;;21.70;59.70;;;;;;5013307;28;20397;-64
2022/11/05 05:11:09;;;;;;;3.53;2.00;;;21.70;59.70;;;;;;5019915;28;20026;-64
2022/11/05 05:13:35;;;;;;;3.40;2.00;;;21.70;59.70;;;;;;5017298;28;20018;-63
2022/11/05 05:16:06;;;;;;;2.85;1.90;;;21.70;59.70;;;;;;5019242;28;20046;-64
2022/11/05 05:18:31;;;;;;;3.50;2.00;;;21.70;59.70;;;;;;5011907;28;20033;-63
2022/11/05 05:23:42;;;;;;;3.33;2.13;;;21.70;59.70;;;;;;5017318;28;20040;-64
2022/11/05 05:26:08;;;;;;;3.00;2.00;;;21.70;59.80;;;;;;5017887;28;20038;-63
2022/11/05 05:28:34;;;;;;;3.22;1.95;;;21.60;59.70;;;;;;5009694;28;20027;-63
2022/11/05 05:31:00;;;;;;;2.78;1.83;;;21.60;59.70;;;;;;5002835;28;20087;-63
2022/11/05 05:33:27;;;;;;;3.50;1.98;;;21.60;59.80;;;;;;5005543;28;20169;-64
2022/11/05 05:35:52;;;;;;;3.75;2.00;;;21.60;59.80;;;;;;5011052;28;20527;-63
2022/11/05 05:38:18;;;;;;;3.42;1.73;;;21.60;59.80;;;;;;5014291;28;20121;-63
2022/11/05 05:40:44;;;;;;;2.55;1.80;;;21.60;59.80;;;;;;5008686;28;20044;-63
2022/11/05 05:43:09;;;;;;;2.60;1.73;;;21.60;59.70;;;;;;5009276;28;20435;-64
2022/11/05 05:45:35;;;;;;;2.90;1.85;;;21.60;59.80;;;;;;5009363;28;20030;-64
2022/11/05 05:48:02;;;;;;;2.63;1.80;;;21.70;59.80;;;;;;5010502;28;20100;-63
2022/11/05 05:50:28;;;;;;;2.63;1.70;;;21.60;59.80;;;;;;5018269;28;20028;-64
2022/11/05 05:52:53;;;;;;;3.17;1.92;;;21.70;59.80;;;;;;5014419;28;20018;-64
2022/11/05 05:55:19;;;;;;;2.90;1.73;;;21.70;59.80;;;;;;5018354;28;20064;-63
2022/11/05 05:57:45;;;;;;;3.03;1.85;;;21.60;59.80;;;;;;5017478;28;20470;-63
2022/11/05 06:00:11;;;;;;;2.80;1.70;;;21.60;59.80;;;;;;5014385;28;20026;-63
2022/11/05 06:02:36;;;;;;;3.53;1.77;;;21.60;59.80;;;;;;5011999;28;20040;-64
2022/11/05 06:05:02;;;;;;;3.25;1.77;;;21.60;59.80;;;;;;5007948;28;20041;-63
2022/11/05 06:07:28;;;;;;;2.83;1.80;;;21.60;59.80;;;;;;5010747;28;20563;-65
2022/11/05 06:09:53;;;;;;;2.80;1.77;;;21.60;59.80;;;;;;5015033;28;20029;-64
2022/11/05 06:12:19;;;;;;;3.05;1.70;;;21.60;59.80;;;;;;5019981;28;20026;-64
2022/11/05 06:14:44;;;;;;;3.15;1.98;;;21.60;59.80;;;;;;5018040;28;20486;-64
2022/11/05 06:17:10;;;;;;;2.78;1.85;;;21.60;59.80;;;;;;5018263;28;20388;-63
2022/11/05 06:19:36;;;;;;;2.75;1.77;;;21.60;59.80;;;;;;5006212;28;20026;-64
2022/11/05 06:22:01;;;;;;;2.42;1.60;;;21.60;59.90;;;;;;5015589;28;20493;-64
2022/11/05 06:24:27;;;;;;;2.47;1.60;;;21.60;59.90;;;;;;5015393;28;20022;-62
2022/11/05 06:26:52;;;;;;;2.80;1.58;;;21.60;60.40;;;;;;5018426;28;20041;-64
2022/11/05 06:29:18;;;;;;;2.90;1.90;;;21.60;59.90;;;;;;5020369;28;20087;-64
2022/11/05 06:31:43;;;;;;;2.60;1.63;;;21.60;59.90;;;;;;5020146;28;20037;-65
2022/11/05 06:34:09;;;;;;;2.50;1.60;;;21.60;59.90;;;;;;5016938;28;20030;-65
2022/11/05 06:36:35;;;;;;;2.67;1.48;;;21.60;59.90;;;;;;5008999;28;20025;-63
2022/11/05 06:39:00;;;;;;;3.10;1.92;;;21.50;59.80;;;;;;5019296;28;20026;-64
2022/11/05 06:41:26;;;;;;;2.85;1.58;;;21.60;59.90;;;;;;5010879;28;20038;-63
2022/11/05 06:43:51;;;;;;;2.55;1.60;;;21.50;59.80;;;;;;5020503;28;20022;-64
2022/11/05 06:46:17;;;;;;;2.97;1.70;;;21.60;59.90;;;;;;5023937;28;20088;-63
2022/11/05 06:48:42;;;;;;;2.72;1.60;;;21.50;59.90;;;;;;5026639;28;20358;-64
2022/11/05 06:51:08;;;;;;;2.75;1.58;;;21.50;59.90;;;;;;5012347;28;20030;-64
2022/11/05 06:53:34;;;;;;;2.28;1.40;;;21.50;59.90;;;;;;5017081;28;20072;-63
2022/11/05 06:56:06;;;;;;;2.92;1.75;;;21.50;59.90;;;;;;5021266;28;20034;-63
2022/11/05 06:58:33;;;;;;;2.80;1.55;;;21.50;59.90;;;;;;5018498;28;20488;-63
2022/11/05 07:01:03;;;;;;;2.42;1.60;;;21.50;59.90;;;;;;5016526;28;20034;-63
2022/11/05 07:03:29;;;;;;;2.92;1.70;;;21.50;59.90;;;;;;5014290;28;20038;-64
2022/11/05 07:05:56;;;;;;;2.25;1.35;;;21.50;59.90;;;;;;5021056;28;20029;-64
2022/11/05 07:08:23;;;;;;;2.08;1.25;;;21.50;59.90;;;;;;5025925;28;20088;-65
2022/11/05 07:10:48;;;;;;;3.40;1.73;;;21.50;59.90;;;;;;5019964;28;20051;-64
2022/11/05 07:13:14;;;;;;;2.20;1.40;;;21.50;59.80;;;;;;5012123;28;20030;-65
2022/11/05 07:15:40;;;;;;;2.72;1.55;;;21.50;59.90;;;;;;5009303;28;20148;-64
2022/11/05 07:18:08;;;;;;;2.20;1.35;;;21.50;59.90;;;;;;5008692;28;20042;-64
2022/11/05 07:20:34;;;;;;;2.05;1.45;;;21.50;59.90;;;;;;5015001;28;20038;-64
2022/11/05 07:23:05;;;;;;;1.85;1.20;;;21.50;59.90;;;;;;5012931;28;20026;-65
2022/11/05 07:25:32;;;;;;;3.08;1.65;;;21.50;59.90;;;;;;4991929;28;20041;-64
2022/11/05 07:27:58;;;;;;;2.35;1.40;;;21.40;59.80;;;;;;5008227;28;20034;-64
2022/11/05 07:30:24;;;;;;;2.38;1.45;;;21.50;59.90;;;;;;5008642;28;20033;-64
2022/11/05 07:32:50;;;;;;;2.17;1.35;;;21.40;59.80;;;;;;5021095;28;20101;-64
2022/11/05 07:35:15;;;;;;;2.20;1.30;;;21.40;59.80;;;;;;5025547;28;20100;-65
2022/11/05 07:37:46;;;;;;;1.90;1.30;;;21.40;59.80;;;;;;5018357;28;20038;-64
2022/11/05 07:40:13;;;;;;;2.72;1.50;;;21.40;59.80;;;;;;5015329;28;20026;-63
2022/11/05 07:42:49;;;;;;;1.90;1.40;;;21.40;59.80;;;;;;5019620;28;20549;-64
2022/11/05 07:45:15;;;;;;;2.35;1.80;;;21.40;59.90;;;;;;5021138;28;20030;-64
2022/11/05 07:47:49;;;;;;;2.97;1.58;;;21.40;59.90;;;;;;5017658;28;20030;-63
2022/11/05 07:50:17;;;;;;;2.22;1.30;;;21.40;59.90;;;;;;5012474;28;20030;-64
2022/11/05 07:52:43;;;;;;;2.28;1.38;;;21.40;59.90;;;;;;5014202;28;20498;-64
2022/11/05 07:55:09;;;;;;;1.80;1.33;;;21.40;59.90;;;;;;5012235;28;20018;-64
2022/11/05 07:57:46;;;;;;;2.17;1.40;;;21.40;59.90;;;;;;5016064;28;20036;-64
2022/11/05 08:00:15;;;;;;;2.10;1.30;;;21.40;60.00;;;;;;5015096;28;20520;-64
2022/11/05 08:02:41;;;;;;;2.38;1.40;;;21.40;59.90;;;;;;5013356;28;20032;-64
2022/11/05 08:05:08;;;;;;;2.78;1.35;;;21.40;59.90;;;;;;5010181;28;20065;-64
2022/11/05 08:07:34;;;;;;;2.72;1.50;;;21.40;60.00;;;;;;5007478;28;20484;-64
2022/11/05 08:09:59;;;;;;;2.88;1.40;;;21.40;60.00;;;;;;5018847;28;20030;-64
2022/11/05 08:12:25;;;;;;;2.08;1.20;;;21.40;60.00;;;;;;5015219;28;20029;-64
2022/11/05 08:14:50;;;;;;;2.53;1.50;;;21.40;60.00;;;;;;5015399;28;20657;-63
2022/11/05 08:17:17;;;;;;;1.92;1.20;;;21.30;59.90;;;;;;5015544;28;20041;-65
2022/11/05 08:19:43;;;;;;;2.30;1.50;;;21.40;60.00;;;;;;5016112;28;20033;-64
2022/11/05 08:22:08;;;;;;;2.40;1.50;;;21.40;60.10;;;;;;5017846;28;20034;-64
2022/11/05 08:24:34;;;;;;;2.38;1.40;;;21.40;60.10;;;;;;5019869;28;20444;-64
2022/11/05 08:26:59;;;;;;;1.80;1.27;;;21.40;60.10;;;;;;5016957;28;20051;-63
2022/11/05 08:29:25;;;;;;;1.55;1.05;;;21.30;60.00;;;;;;5019877;28;20413;-65
2022/11/05 08:31:51;;;;;;;2.28;1.30;;;21.40;60.10;;;;;;5016654;28;20039;-64
2022/11/05 08:34:16;;;;;;;2.47;1.30;;;21.30;60.10;;;;;;5019517;28;20376;-64
2022/11/05 08:36:45;;;;;;;2.17;1.30;;;21.40;60.60;;;;;;5014624;28;20084;-64
2022/11/05 08:39:12;;;;;;;1.90;1.30;;;21.30;60.00;;;;;;5015548;28;20026;-64
2022/11/05 08:41:39;;;;;;;2.25;1.40;;;21.30;60.00;;;;;;5010525;28;20128;-65
2022/11/05 08:44:05;;;;;;;1.38;1.08;;;21.30;60.10;;;;;;5013538;28;20033;-64
2022/11/05 08:46:30;;;;;;;2.10;1.27;;;21.30;60.10;;;;;;5015658;28;20044;-64
2022/11/05 08:48:56;;;;;;;1.98;1.15;;;21.30;60.10;;;;;;5016699;28;20040;-65
2022/11/05 08:51:21;;;;;;;2.13;1.20;;;21.30;60.10;;;;;;5020248;28;20136;-64
2022/11/05 08:53:47;;;;;;;1.75;1.10;;;21.30;60.10;;;;;;5020549;28;20028;-64
2022/11/05 08:56:13;;;;;;;1.98;1.20;;;21.30;60.10;;;;;;5019021;28;20907;-64
2022/11/05 08:58:38;;;;;;;1.95;1.25;;;21.30;60.10;;;;;;5012625;28;20086;-64
2022/11/05 09:01:04;;;;;;;1.73;1.10;;;21.30;60.10;;;;;;5022075;28;20030;-63
2022/11/05 09:03:30;;;;;;;2.40;1.40;;;21.30;60.10;;;;;;5017728;28;20088;-63
2022/11/05 09:05:55;;;;;;;1.95;1.20;;;21.30;60.10;;;;;;5015455;28;20110;-64
2022/11/05 09:08:21;;;;;;;2.20;1.20;;;21.30;60.10;;;;;;5006397;28;20026;-64
2022/11/05 09:10:48;;;;;;;1.75;1.25;;;21.30;60.20;;;;;;5005131;28;20027;-63
2022/11/05 09:13:14;;;;;;;1.92;1.23;;;21.30;60.20;;;;;;5007394;28;20026;-63
2022/11/05 09:15:40;;;;;;;1.70;1.10;;;21.30;60.20;;;;;;5013719;28;20073;-64
2022/11/05 09:18:05;;;;;;;2.00;1.30;;;21.30;60.20;;;;;;5016878;28;20038;-65
2022/11/05 09:20:32;;;;;;;2.00;1.23;;;21.20;60.70;;;;;;5021750;28;20033;-64
2022/11/05 09:22:58;;;;;;;2.58;1.23;;;21.30;60.20;;;;;;5011876;28;20091;-64
2022/11/05 09:25:23;;;;;;;2.05;1.15;;;21.30;60.20;;;;;;5012832;28;20496;-64
2022/11/05 09:27:49;;;;;;;2.10;1.20;;;21.30;60.20;;;;;;5019839;28;20033;-63
2022/11/05 09:30:15;;;;;;;1.90;1.20;;;21.30;60.20;;;;;;5023065;28;20104;-63
2022/11/05 09:32:41;;;;;;;1.80;1.20;;;21.30;60.30;;;;;;5019407;28;20018;-64
2022/11/05 09:35:07;;;;;;;1.30;1.00;;;21.30;60.20;;;;;;5007252;28;20089;-64
2022/11/05 09:37:34;;;;;;;1.42;1.00;;;21.30;60.20;;;;;;5015218;28;20101;-63
2022/11/05 09:40:00;;;;;;;2.35;1.40;;;21.20;60.20;;;;;;5017087;28;20084;-63
2022/11/05 09:42:40;;;;;;;1.83;1.30;;;21.20;60.20;;;;;;5019954;28;20034;-62
2022/11/05 09:45:15;;;;;;;2.80;1.45;;;21.30;60.50;;;;;;5013252;28;20030;-64
2022/11/05 09:47:48;;;;;;;2.42;1.40;;;21.30;61.00;;;;;;5002951;28;20068;-63
2022/11/05 09:50:31;;;;;;;1.80;1.30;;;21.30;60.50;;;;;;5008414;28;20096;-63
2022/11/05 09:52:57;;;;;;;2.70;1.50;;;21.30;60.40;;;;;;4999267;28;20448;-64
2022/11/05 09:55:29;;;;;;;2.53;1.50;;;21.30;60.40;;;;;;5016028;28;20026;-63
2022/11/05 09:57:59;;;;;;;1.90;1.17;;;21.40;60.40;;;;;;5012467;28;20030;-63
2022/11/05 10:00:25;;;;;;;1.83;1.23;;;21.40;60.50;;;;;;5008959;28;20026;-64
2022/11/05 10:02:55;;;;;;;2.67;1.20;;;21.40;60.60;;;;;;5020036;28;20034;-62
2022/11/05 10:05:23;;;;;;;1.88;1.30;;;21.40;60.40;;;;;;5017589;28;20450;-63
2022/11/05 10:07:56;;;;;;;1.85;1.00;;;21.40;60.30;;;;;;5022439;28;20036;-63
2022/11/05 10:10:40;;;;;;;1.50;1.00;;;21.40;60.20;;;;;;5015068;28;20428;-63
2022/11/05 10:13:32;;;;;;;1.70;1.08;;;21.40;60.20;;;;;;5008977;28;20022;-63
2022/11/05 10:16:03;;;;;;;1.33;1.10;;;21.40;60.20;;;;;;5015424;28;20030;-63
2022/11/05 10:18:35;;;;;;;1.67;1.10;;;21.50;60.20;;;;;;5016168;28;20048;-63
2022/11/05 10:21:01;;;;;;;1.67;1.10;;;21.40;60.10;;;;;;5008063;28;20477;-63
2022/11/05 10:23:27;;;;;;;1.98;1.20;;;21.40;60.10;;;;;;5008737;28;20077;-65
2022/11/05 10:25:58;;;;;;;1.42;1.00;;;21.40;60.10;;;;;;5004549;28;20037;-63
2022/11/05 10:28:28;;;;;;;1.25;1.00;;;21.40;60.20;;;;;;5011014;28;20025;-64
2022/11/05 10:31:06;;;;;;;1.48;1.00;;;21.40;60.20;;;;;;5016381;28;20030;-64
2022/11/05 10:33:46;;;;;;;2.25;1.20;;;21.40;60.20;;;;;;5016362;28;20472;-64
2022/11/05 10:36:23;;;;;;;1.60;1.00;;;21.40;60.10;;;;;;5016418;28;20030;-64
2022/11/05 10:38:49;;;;;;;1.77;1.02;;;21.40;60.10;;;;;;5014565;28;20029;-63
2022/11/05 10:41:48;;;;;;;1.70;1.00;;;21.40;60.10;;;;;;5013180;28;20037;-63
2022/11/05 10:44:26;;;;;;;1.67;1.10;;;21.40;60.10;;;;;;5015688;28;20026;-62
2022/11/05 10:46:58;;;;;;;1.40;0.90;;;21.40;60.20;;;;;;5011715;28;20038;-63
2022/11/05 10:49:54;;;;;;;1.52;1.10;;;21.40;60.10;;;;;;5009815;28;20129;-62
2022/11/05 10:52:33;;;;;;;1.65;1.00;;;21.40;60.20;;;;;;5019282;28;20476;-63
2022/11/05 10:55:03;;;;;;;1.75;1.00;;;21.40;60.20;;;;;;5014866;28;20084;-63
2022/11/05 10:57:50;;;;;;;1.70;1.00;;;21.40;60.20;;;;;;5010759;28;20120;-63
2022/11/05 11:00:15;;;;;;;1.90;1.13;;;21.40;60.20;;;;;;5012432;28;20026;-63
2022/11/05 11:02:42;;;;;;;2.00;1.13;;;21.40;60.20;;;;;;5015391;28;20037;-62
2022/11/05 11:05:11;;;;;;;1.50;0.90;;;21.40;60.20;;;;;;5019354;28;20046;-63
2022/11/05 11:07:37;;;;;;;2.08;1.10;;;21.40;60.20;;;;;;5015918;28;20037;-63
2022/11/05 11:10:03;;;;;;;1.77;1.23;;;21.40;60.20;;;;;;5014555;28;20485;-63
2022/11/05 11:12:41;;;;;;;1.70;1.02;;;21.40;60.20;;;;;;5024780;28;20548;-63
2022/11/05 11:15:07;;;;;;;1.35;1.00;;;21.40;60.20;;;;;;5019056;28;20509;-63
2022/11/05 11:17:32;;;;;;;1.45;1.00;;;21.40;60.10;;;;;;5015104;28;20045;-63
2022/11/05 11:20:26;;;;;;;1.75;1.10;;;21.40;60.20;;;;;;5020227;28;20022;-62
2022/11/05 11:23:13;;;;;;;1.42;0.90;;;21.40;60.20;;;;;;5016740;28;20121;-63
2022/11/05 11:26:02;;;;;;;1.48;1.00;;;21.40;60.10;;;;;;5016328;28;20026;-63
2022/11/05 11:28:41;;;;;;;1.60;1.10;;;21.40;60.10;;;;;;5013020;28;20030;-63
2022/11/05 11:31:21;;;;;;;1.17;0.90;;;21.40;60.20;;;;;;5008716;28;20033;-64
2022/11/05 11:33:51;;;;;;;1.67;1.00;;;21.40;60.20;;;;;;5012732;28;20034;-63
2022/11/05 11:36:23;;;;;;;1.52;1.00;;;21.40;60.20;;;;;;5011148;28;20073;-62
2022/11/05 11:38:49;;;;;;;1.55;0.90;;;21.40;60.20;;;;;;5014553;28;20084;-64
2022/11/05 11:41:32;;;;;;;1.30;0.90;;;21.40;60.20;;;;;;5023640;28;20529;-63
2022/11/05 11:44:16;;;;;;;1.42;0.90;;;21.40;60.20;;;;;;5013357;28;20030;-65
2022/11/05 11:46:48;;;;;;;1.67;1.00;;;21.40;60.20;;;;;;5014265;28;20480;-63
2022/11/05 11:49:48;;;;;;;1.48;1.05;;;21.40;60.20;;;;;;5019885;28;20362;-64
2022/11/05 11:52:35;;;;;;;1.60;1.10;;;21.40;60.20;;;;;;5019696;28;20338;-64
2022/11/05 11:55:20;;;;;;;1.40;0.90;;;21.40;60.20;;;;;;5016190;28;20033;-64
2022/11/05 11:58:02;;;;;;;1.35;0.90;;;21.40;60.20;;;;;;5017770;28;20034;-64
2022/11/05 12:00:30;;;;;;;1.85;1.00;;;21.40;60.20;;;;;;5013907;28;20450;-64
2022/11/05 12:03:16;;;;;;;1.38;1.00;;;21.40;60.30;;;;;;5017040;28;20044;-64
2022/11/05 12:05:54;;;;;;;0.98;0.80;;;21.40;60.30;;;;;;5013826;28;20389;-64
2022/11/05 12:08:35;;;;;;;1.40;1.00;;;21.40;60.20;;;;;;5009401;28;20501;-64
2022/11/05 12:11:24;;;;;;;1.40;0.90;;;21.40;60.30;;;;;;5007909;28;20083;-63
2022/11/05 12:13:56;;;;;;;1.40;1.00;;;21.40;60.30;;;;;;5012789;28;20057;-64
2022/11/05 12:16:40;;;;;;;1.10;0.82;;;21.40;60.30;;;;;;5017358;28;20025;-64
2022/11/05 12:19:27;;;;;;;1.63;0.90;;;21.40;60.30;;;;;;5015620;28;20034;-63
2022/11/05 12:22:06;;;;;;;0.88;0.85;;;21.40;60.30;;;;;;5001443;28;20057;-63
2022/11/05 12:24:56;;;;;;;1.15;0.88;;;21.40;60.20;;;;;;5013830;28;20026;-63
2022/11/05 12:27:58;;;;;;;1.50;0.98;;;21.40;60.30;;;;;;5013873;28;20049;-64
2022/11/05 12:30:24;;;;;;;1.17;0.93;;;21.40;60.30;;;;;;5019089;28;20067;-64
2022/11/05 12:33:14;;;;;;;1.00;0.90;;;21.40;60.20;;;;;;5020775;28;20389;-64
2022/11/05 12:36:20;;;;;;;1.13;0.85;;;21.40;60.20;;;;;;5014209;28;20077;-64
2022/11/05 12:39:26;;;;;;;1.30;0.90;;;21.40;60.20;;;;;;4991766;28;20042;-65
2022/11/05 12:42:07;;;;;;;0.93;0.80;;;21.40;60.20;;;;;;4982693;28;20526;-63
2022/11/05 12:45:01;;;;;;;1.45;0.90;;;21.40;60.20;;;;;;5015549;28;20169;-63
2022/11/05 12:48:02;;;;;;;1.95;1.20;;;21.40;60.20;;;;;;5008670;28;20081;-64
2022/11/05 12:51:04;;;;;;;1.33;0.93;;;21.40;60.20;;;;;;4959434;28;20110;-63
2022/11/05 12:53:48;;;;;;;1.30;1.00;;;21.40;60.20;;;;;;4993266;28;20500;-63
2022/11/05 12:56:24;;;;;;;1.17;0.90;;;21.40;60.20;;;;;;5014784;28;20525;-63
2022/11/05 12:59:17;;;;;;;1.25;0.82;;;21.40;60.20;;;;;;5010648;28;20031;-64
2022/11/05 13:01:47;;;;;;;1.20;0.80;;;21.40;60.70;;;;;;5010578;28;20037;-62
2022/11/05 13:04:28;;;;;;;1.40;0.90;;;21.30;60.10;;;;;;5013859;28;20038;-65
2022/11/05 13:06:56;;;;;;;1.08;0.88;;;21.30;60.20;;;;;;5018892;28;20104;-63
2022/11/05 13:09:30;;;;;;;1.27;1.05;;;21.40;60.20;;;;;;5018353;28;20032;-62
2022/11/05 13:12:09;;;;;;;1.80;0.85;;;21.40;60.20;;;;;;5004162;28;20458;-64
2022/11/05 13:14:49;;;;;;;1.60;1.00;;;21.40;60.20;;;;;;5011653;28;20056;-63
2022/11/05 13:17:23;;;;;;;0.93;0.80;;;21.40;60.20;;;;;;5020900;28;20481;-63
2022/11/05 13:20:14;;;;;;;1.27;0.93;;;21.40;60.20;;;;;;5015013;28;20033;-63
2022/11/05 13:22:43;;;;;;;0.98;0.77;;;21.30;60.10;;;;;;5014360;28;20037;-62
2022/11/05 13:25:22;;;;;;;1.05;0.80;;;21.30;60.10;;;;;;5015716;28;20603;-65
2022/11/05 13:28:08;;;;;;;1.00;0.80;;;21.40;60.20;;;;;;5010428;28;20106;-63
2022/11/05 13:30:41;;;;;;;0.88;0.82;;;21.30;60.20;;;;;;5005938;28;20419;-62
2022/11/05 13:33:12;;;;;;;0.90;0.80;;;21.40;60.20;;;;;;5016363;28;20120;-63
2022/11/05 13:35:46;;;;;;;1.30;1.00;;;21.30;60.20;;;;;;5012197;28;20026;-63
2022/11/05 13:41:29;;;;;;;1.33;1.00;;;21.40;60.30;;;;;;5014433;28;20033;-63
2022/11/05 13:44:07;;;;;;;1.10;0.80;;;21.40;60.30;;;;;;5016802;28;20115;-64
2022/11/05 13:47:10;;;;;;;1.48;0.80;;;21.30;60.30;;;;;;4981574;28;20031;-64
2022/11/05 13:49:55;;;;;;;1.63;1.02;;;21.30;60.30;;;;;;5009979;28;20053;-62
2022/11/05 13:52:32;;;;;;;1.80;1.10;;;21.40;60.30;;;;;;5008622;28;20036;-63
2022/11/05 13:55:31;;;;;;;1.40;0.88;;;21.40;60.30;;;;;;5014723;28;20028;-62
2022/11/05 13:58:16;;;;;;;1.83;0.90;;;21.30;60.30;;;;;;5018665;28;20544;-64
2022/11/05 14:01:04;;;;;;;0.95;0.82;;;21.30;60.30;;;;;;5010363;28;20041;-62